LSZH/ZRH METAR and TAF weather

Enter ICAO airport designator
Station Type Date Time Source
LSZH METAR 2019/04/24 16:20 UTC NOAA

LSZH 241620Z 29018G30KT 9999 FEW025 SCT080 13/08 Q1006 NOSIG


Station Type Date Time Source
LSZH Decoded METAR 2019/04/24 16:20 UTC NOAA

Zurich-Kloten, Switzerland (LSZH) 47-29N 008-32E 432M
Apr 24, 2019 - 12:20 PM EDT / 2019.04.24 1620 UTC
Wind: from the WNW (290 degrees) at 21 MPH (18 KT) gusting to 35 MPH (30 KT):0
Visibility: greater than 7 mile(s):0
Sky conditions: partly cloudy
Temperature: 55 F (13 C)
Dew Point: 46 F (8 C)
Relative Humidity: 71%
Pressure (altimeter): 29.71 in. Hg (1006 hPa)
ob: LSZH 241620Z 29018G30KT 9999 FEW025 SCT080 13/08 Q1006 NOSIG
cycle: 16

Station Type Date Time Source
LSZH TAF 2019/04/24 15:36 UTC NOAA

TAF LSZH 241425Z 2415/2521 15010KT CAVOK TX24/2415Z TN05/2505Z TX23/2515Z
TEMPO 2415/2417 15012G25KT PROB40 2415/2417 15015G30KT
TEMPO 2416/2419 28015G30KT
BECMG 2418/2421 VRB03KT
BECMG 2508/2510 06006KT
TEMPO 2510/2520 16015G30KT
TEMPO 2519/2521 28015G30KT

Example: see airport list